Time;durP1;ratioP1;P1;durP2;ratioP2;P2;SDS_P1;SDS_P2;PMS_P1;PMS_P2;Temp;Humidity;BMP_temperature;BMP_pressure;BME280_temperature;BME280_humidity;BME280_pressure;Samples;Min_cycle;Max_cycle;Signal;HPM_P1;HPM_P2
2023/07/11 00:00:58;;;;;;;;;3.33;3.00;;;;;;;;5092093;27;46202;-72
2023/07/11 00:03:23;;;;;;;;;4.00;2.67;;;;;;;;5089238;27;45755;-74
2023/07/11 00:06:02;;;;;;;;;3.67;3.67;;;;;;;;5086910;27;45614;-73
2023/07/11 00:08:27;;;;;;;;;2.00;2.00;;;;;;;;5085986;27;45422;-74
2023/07/11 00:10:52;;;;;;;;;2.00;2.00;;;;;;;;5084313;27;45534;-68
2023/07/11 00:13:18;;;;;;;;;4.33;3.00;;;;;;;;5074356;27;45801;-68
2023/07/11 00:15:43;;;;;;;;;3.00;3.00;;;;;;;;5064894;28;47201;-70
2023/07/11 00:18:08;;;;;;;;;5.67;4.00;;;;;;;;5076344;27;45683;-68
2023/07/11 00:20:33;;;;;;;;;2.33;2.33;;;;;;;;5080263;27;45721;-67
2023/07/11 00:22:58;;;;;;;;;4.33;3.00;;;;;;;;5083530;27;45762;-67
2023/07/11 00:25:24;;;;;;;;;2.00;2.00;;;;;;;;5083560;27;46549;-68
2023/07/11 00:27:49;;;;;;;;;2.67;2.00;;;;;;;;5076949;27;45597;-67
2023/07/11 00:30:14;;;;;;;;;2.00;2.00;;;;;;;;5074494;27;45696;-67
2023/07/11 00:32:39;;;;;;;;;7.00;6.00;;;;;;;;5075615;28;45613;-73
2023/07/11 00:35:05;;;;;;;;;1.67;1.67;;;;;;;;5080186;27;46648;-75
2023/07/11 00:37:30;;;;;;;;;2.00;2.00;;;;;;;;5086874;27;45743;-74
2023/07/11 00:39:55;;;;;;;;;1.33;1.33;;;;;;;;5062368;28;45528;-68
2023/07/11 00:42:20;;;;;;;;;2.00;2.00;;;;;;;;5076266;27;45952;-67
2023/07/11 00:44:48;;;;;;;;;3.67;2.00;;;;;;;;5075989;28;45518;-66
2023/07/11 00:47:13;;;;;;;;;3.00;3.00;;;;;;;;5090190;27;45406;-67
2023/07/11 00:49:39;;;;;;;;;5.00;4.00;;;;;;;;5069845;27;45536;-73
2023/07/11 00:52:04;;;;;;;;;4.00;4.00;;;;;;;;5092477;27;45498;-73
2023/07/11 00:54:32;;;;;;;;;5.00;3.00;;;;;;;;5084757;27;46323;-74
2023/07/11 00:56:58;;;;;;;;;5.00;3.00;;;;;;;;5080964;27;45368;-73
2023/07/11 00:59:24;;;;;;;;;4.00;2.33;;;;;;;;5087362;27;45852;-72
2023/07/11 01:02:15;;;;;;;;;4.33;3.33;;;;;;;;5086771;27;45375;-74
2023/07/11 01:04:40;;;;;;;;;1.67;1.33;;;;;;;;5066554;27;48052;-74
2023/07/11 01:07:07;;;;;;;;;2.33;2.00;;;;;;;;5060388;28;45551;-73
2023/07/11 01:09:33;;;;;;;;;4.00;3.00;;;;;;;;5081303;27;45775;-72
2023/07/11 01:12:00;;;;;;;;;3.00;3.00;;;;;;;;5081967;27;45413;-73
2023/07/11 01:14:25;;;;;;;;;1.00;1.00;;;;;;;;5084603;27;46230;-73
2023/07/11 01:16:51;;;;;;;;;4.00;3.00;;;;;;;;5082020;27;45713;-71
2023/07/11 01:19:17;;;;;;;;;4.00;4.00;;;;;;;;5081154;27;45519;-73
2023/07/11 01:21:42;;;;;;;;;3.00;3.00;;;;;;;;5079786;27;45268;-73
2023/07/11 01:24:07;;;;;;;;;2.33;2.33;;;;;;;;5082915;27;45309;-72
2023/07/11 01:26:32;;;;;;;;;8.00;5.67;;;;;;;;5078319;27;45385;-73
2023/07/11 01:28:58;;;;;;;;;2.67;2.67;;;;;;;;5073106;28;45387;-73
2023/07/11 01:31:23;;;;;;;;;6.00;6.00;;;;;;;;5067935;27;45833;-73
2023/07/11 01:33:49;;;;;;;;;2.00;2.00;;;;;;;;5074350;27;45470;-73
2023/07/11 01:36:14;;;;;;;;;7.33;4.67;;;;;;;;5059721;28;45783;-73
2023/07/11 01:38:40;;;;;;;;;2.67;2.67;;;;;;;;5082584;27;45649;-73
2023/07/11 01:41:05;;;;;;;;;3.67;3.67;;;;;;;;5092460;27;45921;-72
2023/07/11 01:43:31;;;;;;;;;6.00;3.33;;;;;;;;5087127;27;45494;-73
2023/07/11 01:45:56;;;;;;;;;2.67;2.67;;;;;;;;5089265;27;45348;-72
2023/07/11 01:48:21;;;;;;;;;3.33;2.00;;;;;;;;5094071;27;45328;-72
2023/07/11 01:50:46;;;;;;;;;3.33;2.33;;;;;;;;5082617;27;45487;-73
2023/07/11 01:53:12;;;;;;;;;3.00;3.00;;;;;;;;5084137;27;46630;-72
2023/07/11 01:55:37;;;;;;;;;4.00;4.00;;;;;;;;5076109;27;45415;-72
2023/07/11 01:58:03;;;;;;;;;7.33;5.33;;;;;;;;5081077;27;45333;-73
2023/07/11 02:00:28;;;;;;;;;8.33;6.33;;;;;;;;5092611;27;45849;-67
2023/07/11 02:02:54;;;;;;;;;5.00;5.00;;;;;;;;5094642;27;46147;-66
2023/07/11 02:05:19;;;;;;;;;5.00;5.00;;;;;;;;5092068;27;45375;-67
2023/07/11 02:07:45;;;;;;;;;6.00;4.67;;;;;;;;5074426;28;45299;-68
2023/07/11 02:10:10;;;;;;;;;7.00;5.00;;;;;;;;5075392;28;45330;-66
2023/07/11 02:12:35;;;;;;;;;8.00;6.00;;;;;;;;5083973;27;46285;-67
2023/07/11 02:15:01;;;;;;;;;2.33;2.33;;;;;;;;5060330;28;45896;-67
2023/07/11 02:17:26;;;;;;;;;6.00;6.00;;;;;;;;5062505;27;45390;-73
2023/07/11 02:19:51;;;;;;;;;6.33;5.67;;;;;;;;5078216;27;45343;-72
2023/07/11 02:22:16;;;;;;;;;6.00;4.33;;;;;;;;5076902;27;45801;-73
2023/07/11 02:24:42;;;;;;;;;7.00;6.00;;;;;;;;5047543;28;45277;-72
2023/07/11 02:27:07;;;;;;;;;5.00;5.00;;;;;;;;5080493;27;45353;-72
2023/07/11 02:29:33;;;;;;;;;8.33;6.00;;;;;;;;5083461;27;45352;-73
2023/07/11 02:31:58;;;;;;;;;5.00;4.00;;;;;;;;5089379;27;45502;-65
2023/07/11 02:34:23;;;;;;;;;5.00;3.00;;;;;;;;5089313;27;45376;-72
2023/07/11 02:36:48;;;;;;;;;6.67;6.33;;;;;;;;5093364;27;45567;-72
2023/07/11 02:39:14;;;;;;;;;6.33;4.33;;;;;;;;5078396;27;45482;-72
2023/07/11 02:41:39;;;;;;;;;4.67;4.67;;;;;;;;5077104;27;45454;-71
2023/07/11 02:44:04;;;;;;;;;6.00;4.33;;;;;;;;5072832;28;45431;-73
2023/07/11 02:46:29;;;;;;;;;3.00;3.00;;;;;;;;5080266;27;45459;-72
2023/07/11 02:48:55;;;;;;;;;5.33;3.33;;;;;;;;5085839;27;45291;-66
2023/07/11 02:51:21;;;;;;;;;4.00;2.00;;;;;;;;5085857;27;45318;-66
2023/07/11 02:53:46;;;;;;;;;6.00;5.00;;;;;;;;5067955;28;45517;-66
2023/07/11 02:56:11;;;;;;;;;4.67;4.67;;;;;;;;5088508;27;45369;-68
2023/07/11 02:58:37;;;;;;;;;7.00;4.33;;;;;;;;5091311;27;45274;-73
2023/07/11 03:01:02;;;;;;;;;3.67;3.67;;;;;;;;5093848;27;45454;-66
2023/07/11 03:03:28;;;;;;;;;4.67;4.67;;;;;;;;5090693;27;45735;-67
2023/07/11 03:05:53;;;;;;;;;5.67;3.33;;;;;;;;5093171;27;45396;-66
2023/07/11 03:08:19;;;;;;;;;5.00;4.00;;;;;;;;5071173;27;45358;-66
2023/07/11 03:10:44;;;;;;;;;4.33;3.33;;;;;;;;5076417;28;46176;-72
2023/07/11 03:13:09;;;;;;;;;6.67;5.00;;;;;;;;5082368;27;45433;-73
2023/07/11 03:15:35;;;;;;;;;6.00;4.00;;;;;;;;5076497;27;45529;-73
2023/07/11 03:18:01;;;;;;;;;5.67;5.67;;;;;;;;5089587;27;45613;-72
2023/07/11 03:20:26;;;;;;;;;4.33;4.33;;;;;;;;5076489;27;46283;-69
2023/07/11 03:23:25;;;;;;;;;5.67;4.33;;;;;;;;5080292;27;45233;-67
2023/07/11 03:25:51;;;;;;;;;8.67;8.67;;;;;;;;5069349;27;45594;-67
2023/07/11 03:28:16;;;;;;;;;5.67;5.33;;;;;;;;5080231;27;45522;-71
2023/07/11 03:30:42;;;;;;;;;6.00;4.67;;;;;;;;5091313;27;45622;-72
2023/07/11 03:33:07;;;;;;;;;3.33;3.33;;;;;;;;5079847;27;46527;-70
2023/07/11 03:35:33;;;;;;;;;9.67;5.67;;;;;;;;5093980;27;45239;-71
2023/07/11 03:37:58;;;;;;;;;7.33;5.33;;;;;;;;5087516;27;45358;-71
2023/07/11 03:40:24;;;;;;;;;10.00;7.33;;;;;;;;5077164;27;45379;-72
2023/07/11 03:42:49;;;;;;;;;8.00;6.00;;;;;;;;5093914;27;45487;-72
2023/07/11 03:45:14;;;;;;;;;6.33;5.00;;;;;;;;5093117;27;45392;-72
2023/07/11 03:47:39;;;;;;;;;10.67;4.33;;;;;;;;5069730;28;46342;-74
2023/07/11 03:50:05;;;;;;;;;10.33;7.00;;;;;;;;5075809;28;46095;-72
2023/07/11 03:52:30;;;;;;;;;9.33;7.00;;;;;;;;5082922;27;45373;-67
2023/07/11 03:54:55;;;;;;;;;10.67;7.67;;;;;;;;5073733;27;45488;-68
2023/07/11 03:57:20;;;;;;;;;8.33;6.67;;;;;;;;5073998;27;46531;-67
2023/07/11 03:59:46;;;;;;;;;8.67;7.67;;;;;;;;5070573;27;45466;-66
2023/07/11 04:02:11;;;;;;;;;9.33;6.67;;;;;;;;5042380;28;45660;-67
2023/07/11 04:04:36;;;;;;;;;10.33;8.00;;;;;;;;5056337;28;45331;-68
2023/07/11 04:07:02;;;;;;;;;10.67;7.00;;;;;;;;5074911;28;45520;-67
2023/07/11 04:09:27;;;;;;;;;8.67;5.00;;;;;;;;5075678;27;46493;-68
2023/07/11 04:11:53;;;;;;;;;9.00;7.00;;;;;;;;5084891;27;45737;-66
2023/07/11 04:14:18;;;;;;;;;8.67;7.00;;;;;;;;5064653;27;45659;-67
2023/07/11 04:16:43;;;;;;;;;6.33;6.33;;;;;;;;5075669;27;45370;-67
2023/07/11 04:19:08;;;;;;;;;10.00;4.00;;;;;;;;5074870;27;45972;-68
2023/07/11 04:21:34;;;;;;;;;8.67;5.33;;;;;;;;5080315;27;45890;-67
2023/07/11 04:24:00;;;;;;;;;5.00;4.33;;;;;;;;5092730;27;45408;-67
2023/07/11 04:26:25;;;;;;;;;8.33;5.33;;;;;;;;5080171;27;45384;-67
2023/07/11 04:28:50;;;;;;;;;4.00;4.00;;;;;;;;5080941;27;46330;-67
2023/07/11 04:31:15;;;;;;;;;5.00;5.00;;;;;;;;5072943;28;45963;-71
2023/07/11 04:33:41;;;;;;;;;13.67;12.00;;;;;;;;5073303;27;45666;-72
2023/07/11 04:36:10;;;;;;;;;24.00;24.00;;;;;;;;5082533;27;45593;-73
2023/07/11 04:38:35;;;;;;;;;15.33;11.67;;;;;;;;5079665;27;45609;-73
2023/07/11 04:41:02;;;;;;;;;11.00;9.67;;;;;;;;5077442;28;45180;-74
2023/07/11 04:43:27;;;;;;;;;24.67;19.67;;;;;;;;5090398;27;45680;-73
2023/07/11 04:45:54;;;;;;;;;8.33;8.33;;;;;;;;5080710;27;45286;-75
2023/07/11 04:48:20;;;;;;;;;6.67;5.00;;;;;;;;5090916;27;45525;-74
2023/07/11 04:50:45;;;;;;;;;10.00;8.67;;;;;;;;5083533;27;45452;-69
2023/07/11 04:53:11;;;;;;;;;4.00;4.00;;;;;;;;5092464;27;45778;-66
2023/07/11 04:55:37;;;;;;;;;9.00;9.00;;;;;;;;5085428;27;45888;-69
2023/07/11 04:58:03;;;;;;;;;5.00;4.25;;;;;;;;5070218;28;45971;-66
2023/07/11 05:00:28;;;;;;;;;4.75;4.00;;;;;;;;5088093;27;45328;-66
2023/07/11 05:02:53;;;;;;;;;6.25;5.50;;;;;;;;5094650;27;45456;-69
2023/07/11 05:05:19;;;;;;;;;8.00;8.00;;;;;;;;5090504;27;45371;-67
2023/07/11 05:07:44;;;;;;;;;8.25;7.25;;;;;;;;5095605;27;47086;-68
2023/07/11 05:10:09;;;;;;;;;7.50;5.50;;;;;;;;5090091;27;45309;-67
2023/07/11 05:12:34;;;;;;;;;7.00;6.50;;;;;;;;5082329;27;45507;-68
2023/07/11 05:15:00;;;;;;;;;6.25;3.50;;;;;;;;5086179;27;45692;-66
2023/07/11 05:17:25;;;;;;;;;6.00;6.00;;;;;;;;5080987;27;46283;-70
2023/07/11 05:19:50;;;;;;;;;4.25;3.75;;;;;;;;5077256;27;45506;-67
2023/07/11 05:22:15;;;;;;;;;5.00;5.00;;;;;;;;5078600;27;45366;-66
2023/07/11 05:24:41;;;;;;;;;8.00;7.00;;;;;;;;5078756;27;45440;-66
2023/07/11 05:27:06;;;;;;;;;5.75;4.00;;;;;;;;5068656;27;45401;-68
2023/07/11 05:29:33;;;;;;;;;8.00;4.50;;;;;;;;5068697;27;45648;-66
2023/07/11 05:31:58;;;;;;;;;6.50;6.50;;;;;;;;5073383;27;45451;-66
2023/07/11 05:34:24;;;;;;;;;4.25;4.00;;;;;;;;5082046;27;45437;-68
2023/07/11 05:36:49;;;;;;;;;5.00;5.00;;;;;;;;5086857;27;46227;-66
2023/07/11 05:39:15;;;;;;;;;4.75;4.00;;;;;;;;5075957;27;45605;-67
2023/07/11 05:41:46;;;;;;;;;4.00;4.00;;;;;;;;5080667;27;45413;-67
2023/07/11 05:44:13;;;;;;;;;4.75;4.75;;;;;;;;5069312;28;45579;-66
2023/07/11 05:46:38;;;;;;;;;4.25;4.25;;;;;;;;5079543;27;45637;-66
2023/07/11 05:49:04;;;;;;;;;4.50;3.75;;;;;;;;5081102;27;45512;-66
2023/07/11 05:51:30;;;;;;;;;3.50;3.50;;;;;;;;5082973;27;46620;-67
2023/07/11 05:53:55;;;;;;;;;3.00;3.00;;;;;;;;5077425;27;46435;-67
2023/07/11 05:56:20;;;;;;;;;3.25;3.25;;;;;;;;5082477;27;46212;-66
2023/07/11 05:58:46;;;;;;;;;3.25;2.50;;;;;;;;5059443;28;45290;-67
2023/07/11 06:01:13;;;;;;;;;3.25;3.25;;;;;;;;5083081;27;45776;-66
2023/07/11 06:03:45;;;;;;;;;2.50;2.50;;;;;;;;5081090;27;45682;-67
2023/07/11 06:06:10;;;;;;;;;3.00;2.00;;;;;;;;5088623;27;45485;-66
2023/07/11 06:08:35;;;;;;;;;3.50;3.50;;;;;;;;5078071;27;45653;-65
2023/07/11 06:11:01;;;;;;;;;3.25;3.25;;;;;;;;5078093;27;45364;-65
2023/07/11 06:13:28;;;;;;;;;3.25;3.00;;;;;;;;5080464;27;45703;-65
2023/07/11 06:15:57;;;;;;;;;4.00;3.00;;;;;;;;5083148;27;45524;-66
2023/07/11 06:18:22;;;;;;;;;3.75;2.50;;;;;;;;5080794;27;45382;-66
2023/07/11 06:20:47;;;;;;;;;3.00;3.00;;;;;;;;5083908;27;45266;-68
2023/07/11 06:23:13;;;;;;;;;3.25;3.25;;;;;;;;5079037;27;45332;-73
2023/07/11 06:25:38;;;;;;;;;4.00;3.00;;;;;;;;5080698;27;46919;-74
2023/07/11 06:28:03;;;;;;;;;4.25;3.00;;;;;;;;5077259;27;45786;-73
2023/07/11 06:30:29;;;;;;;;;3.00;3.00;;;;;;;;5083710;27;46056;-73
2023/07/11 06:32:54;;;;;;;;;3.00;3.00;;;;;;;;5074618;27;45684;-72
2023/07/11 06:35:19;;;;;;;;;2.50;2.50;;;;;;;;5059250;28;46929;-73
2023/07/11 06:37:44;;;;;;;;;4.50;1.50;;;;;;;;5078981;27;46118;-72
2023/07/11 06:40:10;;;;;;;;;2.50;2.50;;;;;;;;5087105;27;45730;-72
2023/07/11 06:42:35;;;;;;;;;2.25;2.25;;;;;;;;5072172;27;45428;-71
2023/07/11 06:45:01;;;;;;;;;4.67;3.33;;;;;;;;5073610;27;46265;-69
2023/07/11 06:47:26;;;;;;;;;4.00;2.50;;;;;;;;5077316;27;45451;-69
2023/07/11 06:49:51;;;;;;;;;4.67;2.67;;;;;;;;5081951;27;45501;-76
2023/07/11 06:52:16;;;;;;;;;3.00;3.00;;;;;;;;5086336;27;45734;-74
2023/07/11 06:54:41;;;;;;;;;2.33;2.33;;;;;;;;5092543;27;46313;-70
2023/07/11 06:57:07;;;;;;;;;4.67;3.00;;;;;;;;5085336;27;45469;-68
2023/07/11 06:59:32;;;;;;;;;3.67;2.33;;;;;;;;5079371;27;45398;-68
2023/07/11 07:01:57;;;;;;;;;4.00;3.00;;;;;;;;5075047;27;45471;-68
2023/07/11 07:04:22;;;;;;;;;2.33;2.33;;;;;;;;5080604;27;45392;-68
2023/07/11 07:06:48;;;;;;;;;1.67;1.67;;;;;;;;5078845;27;45875;-68
2023/07/11 07:09:13;;;;;;;;;2.00;2.00;;;;;;;;5082007;27;45760;-68
2023/07/11 07:11:38;;;;;;;;;3.00;2.00;;;;;;;;5076118;27;45745;-68
2023/07/11 07:14:07;;;;;;;;;3.00;2.00;;;;;;;;5080851;27;45362;-68
2023/07/11 07:16:36;;;;;;;;;2.33;2.00;;;;;;;;5081292;27;45300;-68
2023/07/11 07:19:03;;;;;;;;;2.00;1.67;;;;;;;;5054411;28;45566;-72
2023/07/11 07:21:28;;;;;;;;;2.00;2.00;;;;;;;;5073849;28;45543;-71
2023/07/11 07:23:54;;;;;;;;;2.67;2.00;;;;;;;;5073344;28;45523;-70
2023/07/11 07:26:19;;;;;;;;;2.00;2.00;;;;;;;;5054311;28;45493;-70
2023/07/11 07:28:44;;;;;;;;;3.33;2.33;;;;;;;;5067577;28;45659;-72
2023/07/11 07:31:09;;;;;;;;;3.67;2.00;;;;;;;;5071161;28;46025;-68
2023/07/11 07:33:35;;;;;;;;;2.00;2.00;;;;;;;;5064525;28;46559;-69
2023/07/11 07:36:04;;;;;;;;;2.00;2.00;;;;;;;;5051950;28;45358;-67
2023/07/11 07:38:29;;;;;;;;;2.00;2.00;;;;;;;;5061714;28;45424;-68
2023/07/11 07:40:56;;;;;;;;;3.00;2.00;;;;;;;;5071884;28;45557;-69
2023/07/11 07:43:21;;;;;;;;;4.33;2.67;;;;;;;;5073211;28;45718;-69
2023/07/11 07:45:49;;;;;;;;;2.00;2.00;;;;;;;;5071808;28;45415;-69
2023/07/11 07:48:15;;;;;;;;;1.00;1.00;;;;;;;;5047850;28;45434;-68
2023/07/11 07:50:40;;;;;;;;;1.00;1.00;;;;;;;;5049944;28;47075;-68
2023/07/11 07:53:05;;;;;;;;;2.67;2.67;;;;;;;;5073266;28;46715;-68
2023/07/11 07:55:34;;;;;;;;;1.00;1.00;;;;;;;;5052300;28;45695;-72
2023/07/11 07:57:59;;;;;;;;;2.33;2.33;;;;;;;;5075495;28;45376;-71
2023/07/11 08:00:24;;;;;;;;;3.67;2.00;;;;;;;;5077219;28;45916;-71
2023/07/11 08:02:50;;;;;;;;;2.67;2.00;;;;;;;;5061541;28;45495;-72
2023/07/11 08:05:17;;;;;;;;;2.33;1.00;;;;;;;;5075348;28;45713;-70
2023/07/11 08:07:42;;;;;;;;;2.00;2.00;;;;;;;;5076438;28;45391;-69
2023/07/11 08:10:08;;;;;;;;;3.00;1.00;;;;;;;;5072103;28;45488;-69
2023/07/11 08:12:33;;;;;;;;;1.33;1.00;;;;;;;;5061682;28;45572;-69
2023/07/11 08:14:58;;;;;;;;;1.00;1.00;;;;;;;;5036750;28;45532;-68
2023/07/11 08:17:23;;;;;;;;;3.00;3.00;;;;;;;;5073427;27;45502;-68
2023/07/11 08:19:49;;;;;;;;;1.00;1.00;;;;;;;;5074185;27;45390;-68
2023/07/11 08:22:14;;;;;;;;;2.00;0.33;;;;;;;;5087082;27;46074;-68
2023/07/11 08:24:39;;;;;;;;;3.67;1.00;;;;;;;;5085027;27;45409;-70
2023/07/11 08:27:04;;;;;;;;;0.33;0.00;;;;;;;;5077765;27;45344;-68
2023/07/11 08:29:30;;;;;;;;;6.00;5.00;;;;;;;;5075354;27;45464;-68
2023/07/11 08:31:55;;;;;;;;;2.00;2.00;;;;;;;;5078316;27;45426;-69
2023/07/11 08:34:21;;;;;;;;;2.00;2.00;;;;;;;;5057361;28;45465;-68
2023/07/11 08:36:46;;;;;;;;;4.00;1.67;;;;;;;;5083833;27;45623;-69
2023/07/11 08:39:12;;;;;;;;;1.00;1.00;;;;;;;;5069995;27;45615;-68
2023/07/11 08:41:47;;;;;;;;;1.00;1.00;;;;;;;;5083514;27;45597;-69
2023/07/11 08:44:32;;;;;;;;;3.00;2.00;;;;;;;;5083859;27;45582;-69
2023/07/11 08:47:16;;;;;;;;;0.67;0.67;;;;;;;;5060403;27;45806;-69
2023/07/11 08:49:42;;;;;;;;;1.00;1.00;;;;;;;;5079227;27;45653;-69
2023/07/11 08:52:09;;;;;;;;;2.00;0.67;;;;;;;;5087762;27;46372;-67
2023/07/11 08:54:56;;;;;;;;;2.67;1.33;;;;;;;;5084806;27;45515;-66
2023/07/11 08:57:23;;;;;;;;;1.33;1.33;;;;;;;;5056693;28;45457;-68
2023/07/11 09:00:02;;;;;;;;;3.00;3.00;;;;;;;;5076619;27;45476;-67
2023/07/11 09:02:36;;;;;;;;;1.00;1.00;;;;;;;;5060708;28;46589;-69
2023/07/11 09:05:03;;;;;;;;;3.00;2.00;;;;;;;;5074482;28;45856;-68
2023/07/11 09:07:40;;;;;;;;;3.00;1.00;;;;;;;;5075555;27;45419;-68
2023/07/11 09:10:32;;;;;;;;;4.67;2.00;;;;;;;;5072561;28;45786;-68
2023/07/11 09:13:01;;;;;;;;;2.00;2.00;;;;;;;;5064411;27;47297;-67
2023/07/11 09:15:42;;;;;;;;;2.67;2.67;;;;;;;;5059479;28;45722;-68
2023/07/11 09:18:07;;;;;;;;;3.00;2.00;;;;;;;;5056971;27;45749;-70
2023/07/11 09:20:40;;;;;;;;;2.00;2.00;;;;;;;;5073983;27;45642;-69
2023/07/11 09:23:19;;;;;;;;;2.67;1.00;;;;;;;;5073884;27;45669;-70
2023/07/11 09:25:45;;;;;;;;;3.00;3.00;;;;;;;;5080340;27;45451;-70
2023/07/11 09:28:14;;;;;;;;;4.00;2.67;;;;;;;;5088314;27;45491;-70
2023/07/11 09:30:46;;;;;;;;;3.00;3.00;;;;;;;;5078784;27;45575;-68
2023/07/11 09:33:14;;;;;;;;;3.00;3.00;;;;;;;;5066254;27;46280;-69
2023/07/11 09:35:41;;;;;;;;;4.00;4.00;;;;;;;;5081536;27;45628;-72
2023/07/11 09:38:12;;;;;;;;;2.67;2.67;;;;;;;;5080587;27;45698;-71
2023/07/11 09:40:49;;;;;;;;;2.00;2.00;;;;;;;;5078258;27;45419;-70
2023/07/11 09:43:17;;;;;;;;;3.33;3.00;;;;;;;;5080158;27;45461;-70
2023/07/11 09:45:44;;;;;;;;;4.00;4.00;;;;;;;;5081816;27;45475;-69
2023/07/11 09:48:12;;;;;;;;;3.00;2.67;;;;;;;;5074380;27;45576;-70
2023/07/11 09:50:37;;;;;;;;;2.00;2.00;;;;;;;;5078159;27;45647;-68
2023/07/11 09:53:07;;;;;;;;;3.33;2.00;;;;;;;;5081264;27;45794;-70
2023/07/11 09:55:36;;;;;;;;;2.67;2.67;;;;;;;;5068169;27;45918;-69
2023/07/11 09:58:01;;;;;;;;;5.00;5.00;;;;;;;;5070717;27;45742;-68
2023/07/11 10:00:28;;;;;;;;;3.00;3.00;;;;;;;;5083535;27;45377;-68
2023/07/11 10:02:53;;;;;;;;;2.00;2.00;;;;;;;;5051781;28;45843;-71
2023/07/11 10:05:21;;;;;;;;;3.00;3.00;;;;;;;;5076312;27;45499;-72
2023/07/11 10:08:07;;;;;;;;;2.67;1.67;;;;;;;;5055439;27;45573;-70
2023/07/11 10:10:32;;;;;;;;;3.00;3.00;;;;;;;;5062172;28;45847;-72
2023/07/11 10:13:09;;;;;;;;;4.33;3.00;;;;;;;;5065407;27;45446;-71
2023/07/11 10:15:35;;;;;;;;;3.67;3.00;;;;;;;;5047471;28;45505;-68
2023/07/11 10:18:00;;;;;;;;;3.33;2.33;;;;;;;;5067128;27;45527;-73
2023/07/11 10:20:26;;;;;;;;;3.00;2.00;;;;;;;;5069004;27;45500;-72
2023/07/11 10:22:52;;;;;;;;;1.33;1.33;;;;;;;;5076726;27;46566;-69
2023/07/11 10:25:20;;;;;;;;;4.00;3.00;;;;;;;;5075817;27;45922;-70
2023/07/11 10:27:54;;;;;;;;;3.00;3.00;;;;;;;;5082814;27;45321;-72
2023/07/11 10:30:21;;;;;;;;;1.00;1.00;;;;;;;;5076720;27;45462;-67
2023/07/11 10:33:03;;;;;;;;;3.00;2.00;;;;;;;;5083754;27;45869;-70
2023/07/11 10:35:29;;;;;;;;;1.33;1.33;;;;;;;;5076953;27;45759;-67
2023/07/11 10:37:58;;;;;;;;;2.00;2.00;;;;;;;;5090947;27;45655;-69
2023/07/11 10:40:28;;;;;;;;;3.00;1.00;;;;;;;;5080021;27;45407;-71
2023/07/11 10:42:56;;;;;;;;;0.67;0.67;;;;;;;;5075358;27;45905;-70
2023/07/11 10:45:26;;;;;;;;;3.00;2.00;;;;;;;;5058254;27;45858;-72
2023/07/11 10:47:55;;;;;;;;;3.33;3.00;;;;;;;;5083412;27;45731;-71
2023/07/11 10:50:28;;;;;;;;;3.67;2.00;;;;;;;;5066490;27;46025;-71
2023/07/11 10:52:55;;;;;;;;;4.00;3.33;;;;;;;;5078275;27;45704;-70
2023/07/11 10:55:24;;;;;;;;;3.00;3.00;;;;;;;;5081930;27;45817;-70
2023/07/11 10:57:51;;;;;;;;;5.00;4.00;;;;;;;;5066143;27;45418;-67
2023/07/11 11:00:17;;;;;;;;;3.00;3.00;;;;;;;;5063483;27;45663;-69
2023/07/11 11:02:51;;;;;;;;;3.00;3.00;;;;;;;;5073724;27;45676;-73
2023/07/11 11:05:37;;;;;;;;;4.67;2.67;;;;;;;;5073902;27;46002;-67
2023/07/11 11:08:06;;;;;;;;;3.33;3.33;;;;;;;;5039987;28;45718;-68
2023/07/11 11:10:41;;;;;;;;;2.33;2.33;;;;;;;;5077595;27;45673;-68
2023/07/11 11:13:24;;;;;;;;;3.50;3.50;;;;;;;;5076064;27;45726;-72
2023/07/11 11:16:03;;;;;;;;;2.75;2.75;;;;;;;;5072706;27;45951;-71
2023/07/11 11:18:34;;;;;;;;;3.00;3.00;;;;;;;;5087782;27;45860;-73
2023/07/11 11:21:06;;;;;;;;;2.75;2.75;;;;;;;;5085275;27;46120;-70
2023/07/11 11:23:41;;;;;;;;;3.50;2.00;;;;;;;;5060058;27;46334;-73
2023/07/11 11:26:09;;;;;;;;;2.00;2.00;;;;;;;;5082793;27;45776;-72
2023/07/11 11:28:47;;;;;;;;;3.00;3.00;;;;;;;;5073648;27;45733;-72
2023/07/11 11:31:26;;;;;;;;;4.75;4.75;;;;;;;;5041910;28;46090;-72
2023/07/11 11:34:05;;;;;;;;;7.25;5.25;;;;;;;;5079436;27;45444;-71
2023/07/11 11:36:38;;;;;;;;;3.00;3.00;;;;;;;;5067807;27;45774;-71
2023/07/11 11:39:04;;;;;;;;;4.75;2.75;;;;;;;;5089631;27;45546;-71
2023/07/11 11:41:42;;;;;;;;;3.50;3.50;;;;;;;;5082892;27;45379;-71
2023/07/11 11:44:16;;;;;;;;;3.50;3.00;;;;;;;;5084448;27;45558;-74
2023/07/11 11:46:42;;;;;;;;;4.00;3.00;;;;;;;;5093792;27;45651;-71
2023/07/11 11:49:09;;;;;;;;;3.00;2.50;;;;;;;;5080462;27;45460;-71
2023/07/11 11:51:35;;;;;;;;;5.25;3.00;;;;;;;;5080560;27;45673;-70
2023/07/11 11:54:03;;;;;;;;;2.00;2.00;;;;;;;;5089011;27;45588;-70
2023/07/11 11:56:29;;;;;;;;;3.75;2.50;;;;;;;;5069550;27;45424;-71
2023/07/11 11:58:54;;;;;;;;;4.25;2.00;;;;;;;;5081264;27;45388;-71
2023/07/11 12:01:33;;;;;;;;;3.00;3.00;;;;;;;;5078435;27;45387;-71
2023/07/11 12:03:58;;;;;;;;;3.00;3.00;;;;;;;;5056734;27;47244;-72
2023/07/11 12:06:30;;;;;;;;;3.25;2.00;;;;;;;;5068065;28;45745;-72
2023/07/11 12:09:14;;;;;;;;;2.50;2.00;;;;;;;;5082129;27;45341;-72
2023/07/11 12:11:43;;;;;;;;;3.25;3.25;;;;;;;;5071996;28;45714;-71
2023/07/11 12:14:25;;;;;;;;;1.00;1.00;;;;;;;;5078133;27;46611;-73
2023/07/11 12:16:52;;;;;;;;;5.25;4.00;;;;;;;;5087759;27;45778;-73
2023/07/11 12:19:28;;;;;;;;;3.25;3.25;;;;;;;;5075887;27;45426;-72
2023/07/11 12:21:57;;;;;;;;;3.00;3.00;;;;;;;;5063713;27;45401;-72
2023/07/11 12:24:24;;;;;;;;;3.50;2.25;;;;;;;;5072296;28;46426;-71
2023/07/11 12:26:50;;;;;;;;;2.00;2.00;;;;;;;;5073180;27;45458;-72
2023/07/11 12:29:33;;;;;;;;;3.00;3.00;;;;;;;;5080259;27;46032;-71
2023/07/11 12:32:19;;;;;;;;;2.75;2.75;;;;;;;;5078674;27;45368;-72
2023/07/11 12:34:44;;;;;;;;;2.50;2.50;;;;;;;;5072552;27;45426;-73
2023/07/11 12:37:10;;;;;;;;;4.25;2.00;;;;;;;;5078889;27;45890;-72
2023/07/11 12:39:44;;;;;;;;;3.00;3.00;;;;;;;;5087696;27;45700;-74
2023/07/11 12:42:16;;;;;;;;;2.00;2.00;;;;;;;;5057693;27;45485;-72
2023/07/11 12:44:42;;;;;;;;;3.25;3.25;;;;;;;;5074014;27;45530;-73
2023/07/11 12:47:11;;;;;;;;;4.00;4.00;;;;;;;;5092575;27;45736;-71
2023/07/11 12:49:39;;;;;;;;;2.00;2.00;;;;;;;;5081755;27;45672;-72
2023/07/11 12:52:06;;;;;;;;;3.00;3.00;;;;;;;;5071957;27;45683;-72
2023/07/11 12:54:31;;;;;;;;;1.00;1.00;;;;;;;;5064596;28;46890;-73
2023/07/11 12:56:56;;;;;;;;;2.00;2.00;;;;;;;;5079634;27;45326;-73
2023/07/11 12:59:29;;;;;;;;;1.75;1.75;;;;;;;;5084407;27;45665;-74
2023/07/11 13:02:01;;;;;;;;;3.25;2.75;;;;;;;;5089445;27;45564;-73
2023/07/11 13:04:33;;;;;;;;;2.00;1.00;;;;;;;;5081410;27;46239;-72
2023/07/11 13:06:58;;;;;;;;;2.00;2.00;;;;;;;;5077194;27;45677;-71
2023/07/11 13:09:24;;;;;;;;;3.50;3.50;;;;;;;;5072099;27;46071;-73
2023/07/11 13:11:50;;;;;;;;;1.00;1.00;;;;;;;;5094243;27;45674;-72
2023/07/11 13:14:15;;;;;;;;;5.25;4.00;;;;;;;;5090846;27;45465;-72
2023/07/11 13:16:42;;;;;;;;;2.50;2.50;;;;;;;;5076415;27;45574;-70
2023/07/11 13:19:14;;;;;;;;;4.50;4.50;;;;;;;;5083424;27;45567;-69
2023/07/11 13:21:41;;;;;;;;;3.00;3.00;;;;;;;;5073721;27;45733;-68
2023/07/11 13:24:10;;;;;;;;;3.25;2.25;;;;;;;;5073412;27;48147;-67
2023/07/11 13:26:36;;;;;;;;;1.00;1.00;;;;;;;;5069352;27;45959;-67
2023/07/11 13:29:06;;;;;;;;;1.25;1.25;;;;;;;;5088368;27;45337;-66
2023/07/11 13:31:35;;;;;;;;;2.00;2.00;;;;;;;;5083444;27;45420;-71
2023/07/11 13:34:02;;;;;;;;;2.75;2.25;;;;;;;;5064338;28;46435;-71
2023/07/11 13:36:31;;;;;;;;;2.00;2.00;;;;;;;;5080605;27;45852;-72
2023/07/11 13:39:00;;;;;;;;;4.75;3.50;;;;;;;;5069423;28;45638;-71
2023/07/11 13:41:31;;;;;;;;;3.75;3.75;;;;;;;;5077077;27;45558;-71
2023/07/11 13:43:59;;;;;;;;;3.00;2.50;;;;;;;;5077489;27;45352;-71
2023/07/11 13:46:28;;;;;;;;;4.50;4.50;;;;;;;;5075559;27;45734;-71
2023/07/11 13:48:53;;;;;;;;;4.00;3.00;;;;;;;;5082166;27;45297;-71
2023/07/11 13:51:19;;;;;;;;;5.00;3.50;;;;;;;;5076161;28;45546;-72
2023/07/11 13:53:54;;;;;;;;;3.00;3.00;;;;;;;;5080153;27;45939;-69
2023/07/11 13:56:20;;;;;;;;;4.25;3.00;;;;;;;;5069823;27;45837;-70
2023/07/11 13:58:46;;;;;;;;;4.25;3.00;;;;;;;;5077581;27;45560;-71
2023/07/11 14:01:13;;;;;;;;;1.50;1.50;;;;;;;;5085724;27;45403;-67
2023/07/11 14:03:38;;;;;;;;;3.00;2.00;;;;;;;;5089547;27;46272;-68
2023/07/11 14:06:04;;;;;;;;;0.50;0.50;;;;;;;;5088700;27;45375;-68
2023/07/11 14:08:29;;;;;;;;;2.50;2.00;;;;;;;;5081987;27;45706;-72
2023/07/11 14:10:55;;;;;;;;;3.00;3.00;;;;;;;;5079078;27;45609;-72
2023/07/11 14:13:24;;;;;;;;;5.75;4.25;;;;;;;;5080153;27;46534;-71
2023/07/11 14:15:50;;;;;;;;;4.25;3.00;;;;;;;;5072965;27;45604;-68
2023/07/11 14:18:16;;;;;;;;;2.25;2.25;;;;;;;;5077211;27;45340;-68
2023/07/11 14:20:41;;;;;;;;;2.00;2.00;;;;;;;;5059355;27;45748;-72
2023/07/11 14:23:11;;;;;;;;;4.00;2.50;;;;;;;;5082367;27;45550;-68
2023/07/11 14:25:36;;;;;;;;;4.75;4.75;;;;;;;;5082183;27;45455;-68
2023/07/11 14:28:02;;;;;;;;;2.75;2.75;;;;;;;;5088531;27;45536;-71
2023/07/11 14:30:28;;;;;;;;;3.00;3.00;;;;;;;;5080754;27;45760;-68
2023/07/11 14:32:53;;;;;;;;;1.50;1.50;;;;;;;;5059245;27;47768;-69
2023/07/11 14:35:19;;;;;;;;;2.75;2.75;;;;;;;;5080156;27;45409;-69
2023/07/11 14:37:45;;;;;;;;;1.00;1.00;;;;;;;;5092474;27;45714;-68
2023/07/11 14:40:18;;;;;;;;;4.00;3.00;;;;;;;;5093505;27;45617;-71
2023/07/11 14:42:43;;;;;;;;;2.75;2.75;;;;;;;;5093649;27;45729;-71
2023/07/11 14:45:12;;;;;;;;;3.00;3.00;;;;;;;;5075236;27;45660;-67